Time;durP1;ratioP1;P1;durP2;ratioP2;P2;SDS_P1;SDS_P2;PMS_P1;PMS_P2;Temp;Humidity;BMP_temperature;BMP_pressure;BME280_temperature;BME280_humidity;BME280_pressure;Samples;Min_cycle;Max_cycle;Signal;HPM_P1;HPM_P2
2022/01/19 00:01:18;;;;;;;29.67;11.57;;;;;;;2.04;55.65;103240.94;4993000;28;20393;-70
2022/01/19 00:03:43;;;;;;;32.97;11.20;;;;;;;1.20;57.53;103230.22;4996513;28;20184;-73
2022/01/19 00:06:12;;;;;;;36.65;11.90;;;;;;;1.62;56.63;103230.03;5008494;28;20049;-70
2022/01/19 00:08:38;;;;;;;29.40;11.40;;;;;;;0.91;58.46;103219.69;5006649;28;20077;-71
2022/01/19 00:11:06;;;;;;;30.95;11.55;;;;;;;1.50;56.68;103209.84;5009424;28;20040;-73
2022/01/19 00:13:34;;;;;;;30.60;11.50;;;;;;;1.51;56.94;103203.88;5013617;28;20052;-73
2022/01/19 00:16:01;;;;;;;30.15;11.88;;;;;;;1.64;56.34;103206.06;5024395;28;20502;-73
2022/01/19 00:18:27;;;;;;;28.10;11.52;;;;;;;1.54;56.63;103210.84;5006317;28;20050;-70
2022/01/19 00:20:54;;;;;;;32.65;11.20;;;;;;;1.13;58.15;103210.16;5008244;28;20037;-70
2022/01/19 00:23:22;;;;;;;31.25;10.88;;;;;;;0.96;58.15;103215.59;5008773;28;20053;-72
2022/01/19 00:25:54;;;;;;;36.42;12.00;;;;;;;1.06;57.87;103202.25;5003514;28;20037;-71
2022/01/19 00:28:22;;;;;;;31.67;12.02;;;;;;;0.87;58.34;103189.50;5008799;28;20050;-71
2022/01/19 00:30:48;;;;;;;37.53;13.45;;;;;;;1.57;56.96;103185.16;5006691;28;20424;-71
2022/01/19 00:33:15;;;;;;;28.02;9.80;;;;;;;1.45;57.03;103189.06;4999055;28;20052;-71
2022/01/19 00:35:41;;;;;;;32.53;11.48;;;;;;;1.01;58.13;103183.13;5003866;28;20795;-71
2022/01/19 00:38:11;;;;;;;32.35;10.15;;;;;;;1.66;55.99;103154.53;5022698;28;20124;-72
2022/01/19 00:40:41;;;;;;;28.20;11.10;;;;;;;1.60;56.98;103128.56;5023739;28;20099;-71
2022/01/19 00:43:07;;;;;;;33.70;12.63;;;;;;;1.69;56.58;103114.28;4997952;28;20082;-73
2022/01/19 00:45:32;;;;;;;32.78;11.50;;;;;;;1.61;56.25;103107.97;5012622;28;20037;-71
2022/01/19 00:48:00;;;;;;;34.20;12.65;;;;;;;1.77;56.15;103093.88;5005155;28;20103;-70
2022/01/19 00:50:29;;;;;;;31.95;11.63;;;;;;;1.04;57.98;103087.97;5006840;28;20338;-71
2022/01/19 00:53:00;;;;;;;34.53;13.35;;;;;;;1.32;57.33;103089.78;5006046;28;20128;-71
2022/01/19 00:55:27;;;;;;;32.28;12.30;;;;;;;1.43;57.16;103079.88;5008583;28;20537;-71
2022/01/19 00:57:55;;;;;;;29.98;12.40;;;;;;;1.91;55.70;103084.03;4996015;28;20076;-73
2022/01/19 01:00:24;;;;;;;31.65;12.30;;;;;;;1.84;56.01;103087.22;5009261;28;20033;-75
2022/01/19 01:02:50;;;;;;;29.02;11.50;;;;;;;1.76;56.27;103107.63;5008533;28;20096;-75
2022/01/19 01:05:16;;;;;;;34.50;14.10;;;;;;;2.21;55.07;103102.16;4993910;28;20056;-73
2022/01/19 01:07:42;;;;;;;42.67;13.43;;;;;;;2.02;55.14;103092.09;4998831;28;20357;-72
2022/01/19 01:10:10;;;;;;;27.17;13.30;;;;;;;0.58;58.89;103090.59;5015449;28;20037;-72
2022/01/19 01:12:47;;;;;;;39.25;13.80;;;;;;;1.47;57.46;103081.75;5021206;28;20042;-72
2022/01/19 01:16:02;;;;;;;38.95;12.07;;;;;;;1.82;56.31;103088.88;5004201;28;20502;-71
2022/01/19 01:18:18;;;;;;;36.22;12.40;;;;;;;1.61;56.89;103089.94;5006503;28;20057;-72
2022/01/19 01:20:56;;;;;;;37.28;11.50;;;;;;;1.00;59.00;103075.81;5005283;28;20077;-72
2022/01/19 01:23:24;;;;;;;40.63;12.48;;;;;;;0.95;59.56;103053.28;5005390;28;20490;-72
2022/01/19 01:25:53;;;;;;;36.35;12.05;;;;;;;0.96;59.38;103039.59;5023553;28;20091;-72
2022/01/19 01:28:18;;;;;;;38.13;13.60;;;;;;;1.48;58.02;103047.44;5007898;28;20438;-72
2022/01/19 01:30:44;;;;;;;37.22;11.10;;;;;;;1.55;57.61;103050.19;5007712;28;20284;-72
2022/01/19 01:33:12;;;;;;;37.50;14.02;;;;;;;1.83;56.59;103044.22;5003834;28;20073;-72
2022/01/19 01:35:39;;;;;;;42.30;12.73;;;;;;;1.73;56.91;103043.06;4996999;28;20546;-72
2022/01/19 01:38:08;;;;;;;38.13;12.93;;;;;;;1.44;57.46;103029.22;5022590;28;20499;-72
2022/01/19 01:40:37;;;;;;;47.33;14.90;;;;;;;1.47;57.60;103013.88;5021015;28;20041;-72
2022/01/19 01:43:06;;;;;;;42.25;13.57;;;;;;;1.26;58.50;102998.53;4992820;28;20092;-72
2022/01/19 01:45:35;;;;;;;45.10;14.15;;;;;;;1.09;58.80;102986.00;4993860;28;20033;-72
2022/01/19 01:48:25;;;;;;;48.30;12.82;;;;;;;1.68;57.39;102970.72;5007300;28;20041;-72
2022/01/19 01:53:47;;;;;;;46.35;16.35;;;;;;;1.81;56.78;102922.97;5020830;28;20130;-72
2022/01/19 01:56:17;;;;;;;50.67;13.85;;;;;;;1.65;57.18;102920.78;5008540;28;20033;-72
2022/01/19 01:58:48;;;;;;;34.30;13.30;;;;;;;1.84;57.11;102907.59;5020479;28;20049;-72
2022/01/19 02:01:45;;;;;;;49.10;15.45;;;;;;;1.71;56.85;102906.38;5005330;28;20042;-72
2022/01/19 02:04:12;;;;;;;49.97;15.45;;;;;;;1.59;57.31;102915.44;5003034;28;20461;-72
2022/01/19 02:09:31;;;;;;;41.22;14.20;;;;;;;0.97;59.46;102913.50;5022263;28;20479;-72
2022/01/19 02:23:07;;;;;;;44.88;15.13;;;;;;;0.90;59.39;102896.97;5020814;28;20131;-73
2022/01/19 02:25:39;;;;;;;52.65;15.93;;;;;;;1.31;58.28;102891.38;5021995;28;20450;-71
2022/01/19 02:31:50;;;;;;;52.05;14.82;;;;;;;1.15;58.99;102886.56;5006933;28;20134;-72
2022/01/19 02:41:37;;;;;;;39.88;12.65;;;;;;;1.42;57.60;102859.13;5019620;28;20044;-73
2022/01/19 02:44:08;;;;;;;35.58;13.35;;;;;;;1.41;57.33;102849.63;5012742;28;20387;-72
2022/01/19 02:49:19;;;;;;;36.38;12.20;;;;;;;1.04;58.61;102825.28;5021039;28;20407;-72
2022/01/19 02:51:49;;;;;;;46.50;11.95;;;;;;;1.73;56.99;102813.63;5003466;28;20038;-72
2022/01/19 02:54:25;;;;;;;41.40;10.68;;;;;;;1.67;56.61;102816.88;5004916;28;20038;-71
2022/01/19 02:56:53;;;;;;;35.20;12.10;;;;;;;1.80;56.48;102812.94;5004091;28;21522;-71
2022/01/19 03:10:31;;;;;;;35.55;11.77;;;;;;;0.99;59.51;102784.75;5038354;28;20524;-72
2022/01/19 03:12:56;;;;;;;38.67;12.75;;;;;;;1.19;58.46;102775.06;5006621;28;20049;-71
2022/01/19 03:15:22;;;;;;;44.33;13.50;;;;;;;1.55;57.71;102764.09;5004235;28;20135;-71
2022/01/19 03:17:56;;;;;;;42.97;11.27;;;;;;;1.63;57.20;102765.19;4995128;28;20249;-74
2022/01/19 03:20:22;;;;;;;35.78;12.88;;;;;;;1.72;56.75;102768.03;5022992;28;20036;-74
2022/01/19 03:23:04;;;;;;;36.70;12.57;;;;;;;1.67;56.84;102762.75;5015843;28;20046;-74
2022/01/19 03:25:37;;;;;;;38.85;12.60;;;;;;;1.96;56.43;102746.31;4991069;28;20064;-74
2022/01/19 03:28:05;;;;;;;37.08;12.02;;;;;;;1.84;56.35;102737.44;5005560;28;20038;-73
2022/01/19 03:30:38;;;;;;;39.58;12.32;;;;;;;1.32;57.94;102734.25;5002544;28;20516;-72
2022/01/19 03:33:04;;;;;;;39.55;13.00;;;;;;;1.27;58.37;102732.38;5019063;28;20053;-72
2022/01/19 03:35:30;;;;;;;32.30;11.52;;;;;;;1.14;58.70;102725.13;4988621;28;20033;-72
2022/01/19 03:37:56;;;;;;;44.50;14.10;;;;;;;1.60;57.53;102721.31;5006785;28;20091;-72
2022/01/19 03:40:22;;;;;;;39.20;13.27;;;;;;;1.63;57.52;102711.06;5009879;28;20522;-72
2022/01/19 03:42:51;;;;;;;41.13;13.77;;;;;;;1.45;58.02;102709.72;5003543;28;22168;-72
2022/01/19 03:45:23;;;;;;;38.88;12.82;;;;;;;1.11;58.34;102701.03;5005363;28;20068;-72
2022/01/19 03:48:08;;;;;;;42.70;12.35;;;;;;;1.27;58.65;102711.78;5006863;28;20045;-72
2022/01/19 03:50:34;;;;;;;45.33;13.73;;;;;;;1.62;57.68;102706.75;5009329;28;20029;-72
2022/01/19 03:53:00;;;;;;;38.63;12.68;;;;;;;1.59;57.88;102698.91;5025063;28;20045;-72
2022/01/19 03:55:27;;;;;;;31.50;10.15;;;;;;;1.88;56.81;102690.22;5009120;28;20036;-71
2022/01/19 03:57:52;;;;;;;35.47;11.57;;;;;;;1.13;59.10;102698.50;4988966;28;20054;-73
2022/01/19 04:00:20;;;;;;;42.90;11.02;;;;;;;1.09;59.19;102694.97;4993023;28;20111;-72
2022/01/19 04:02:47;;;;;;;37.20;12.52;;;;;;;0.52;60.71;102689.81;5003561;28;20049;-71
2022/01/19 04:05:22;;;;;;;40.15;11.98;;;;;;;1.01;59.51;102680.09;5016434;28;20042;-71
2022/01/19 04:07:48;;;;;;;42.80;13.15;;;;;;;1.25;58.88;102677.38;5021832;28;20044;-71
2022/01/19 04:10:15;;;;;;;35.95;12.10;;;;;;;1.10;58.94;102673.53;5015550;28;20483;-71
2022/01/19 04:12:55;;;;;;;47.40;13.05;;;;;;;1.14;59.66;102665.88;5019840;28;20041;-71
2022/01/19 04:15:20;;;;;;;50.85;14.82;;;;;;;0.84;60.52;102659.03;5009726;28;20033;-71
2022/01/19 04:17:54;;;;;;;49.35;13.10;;;;;;;0.75;60.94;102648.44;5005090;28;20457;-74
2022/01/19 04:20:24;;;;;;;53.05;13.48;;;;;;;0.11;62.81;102650.81;5008817;28;20042;-72
2022/01/19 04:22:49;;;;;;;53.10;14.20;;;;;;;0.90;60.32;102646.31;4998331;28;20495;-73
2022/01/19 04:25:15;;;;;;;43.97;14.18;;;;;;;0.43;61.67;102645.78;5015549;28;20041;-72
2022/01/19 04:27:43;;;;;;;47.13;14.00;;;;;;;0.96;60.42;102637.91;4996046;28;20099;-72
2022/01/19 04:30:12;;;;;;;46.78;15.07;;;;;;;0.96;60.44;102643.94;5009432;28;20108;-72
2022/01/19 04:33:01;;;;;;;49.60;14.10;;;;;;;0.47;61.29;102643.34;5006696;28;20038;-73
2022/01/19 04:35:34;;;;;;;57.40;14.80;;;;;;;0.92;60.29;102636.94;5024227;28;20056;-72
2022/01/19 04:46:43;;;;;;;51.83;14.13;;;;;;;1.05;59.75;102658.78;5015796;28;20204;-72
2022/01/19 04:54:42;;;;;;;52.17;15.40;;;;;;;0.95;61.32;102631.00;5010793;28;20037;-72
2022/01/19 05:06:18;;;;;;;47.63;15.30;;;;;;;1.22;60.16;102636.94;5006298;28;20045;-72
2022/01/19 05:13:52;;;;;;;47.80;14.45;;;;;;;1.47;59.76;102646.22;5005612;28;20058;-74
2022/01/19 05:16:23;;;;;;;49.22;14.25;;;;;;;1.05;60.22;102649.34;5023884;28;20034;-74
2022/01/19 05:18:52;;;;;;;53.35;13.88;;;;;;;1.46;59.55;102635.88;5023431;28;20057;-74
2022/01/19 05:21:18;;;;;;;39.83;12.93;;;;;;;1.91;57.58;102635.31;5006278;28;20042;-74
2022/01/19 05:23:52;;;;;;;45.35;14.40;;;;;;;1.88;58.20;102635.22;5007579;28;20049;-74
2022/01/19 05:26:20;;;;;;;45.10;14.23;;;;;;;1.16;60.70;102626.47;5023996;28;20080;-74
2022/01/19 05:28:46;;;;;;;46.75;12.00;;;;;;;1.90;58.02;102621.53;5006240;28;20139;-74
2022/01/19 05:31:14;;;;;;;44.13;14.55;;;;;;;0.64;61.91;102615.56;5006961;28;20035;-71
2022/01/19 05:33:40;;;;;;;41.35;14.13;;;;;;;1.59;59.34;102621.59;5004994;28;20041;-71
2022/01/19 05:36:06;;;;;;;44.85;14.25;;;;;;;1.13;60.60;102616.09;5011619;28;20407;-75
2022/01/19 05:39:00;;;;;;;40.67;13.50;;;;;;;1.00;60.50;102612.28;5019362;28;20409;-75
2022/01/19 05:41:44;;;;;;;42.85;15.10;;;;;;;1.46;59.60;102610.09;5042300;28;20563;-75
2022/01/19 05:44:13;;;;;;;42.70;11.60;;;;;;;1.57;58.86;102608.66;5041921;28;20048;-75
2022/01/19 05:46:38;;;;;;;48.30;16.80;;;;;;;1.50;58.84;102597.31;5044118;28;20025;-76
2022/01/19 05:49:04;;;;;;;54.35;16.15;;;;;;;1.32;60.23;102612.28;5008911;28;20029;-75
2022/01/19 05:51:30;;;;;;;49.05;15.02;;;;;;;1.34;59.92;102591.72;5021336;28;20025;-73
2022/01/19 05:53:56;;;;;;;45.10;15.10;;;;;;;1.01;60.56;102588.28;5003766;28;20049;-73
2022/01/19 05:56:24;;;;;;;47.63;15.85;;;;;;;1.42;59.58;102580.81;4991950;28;20033;-73
2022/01/19 05:59:18;;;;;;;42.25;14.50;;;;;;;1.68;58.75;102578.88;5016021;28;20140;-72
2022/01/19 06:01:44;;;;;;;53.20;15.65;;;;;;;1.39;59.65;102579.81;5004678;28;20438;-72
2022/01/19 06:04:09;;;;;;;45.70;15.32;;;;;;;1.11;60.26;102567.09;5007846;28;20030;-74
2022/01/19 06:06:56;;;;;;;50.83;16.15;;;;;;;1.53;59.18;102560.47;5006452;28;20155;-73
2022/01/19 06:12:16;;;;;;;53.53;17.52;;;;;;;1.53;58.75;102555.31;5022468;28;20056;-73
2022/01/19 06:14:44;;;;;;;51.72;18.02;;;;;;;1.75;58.57;102538.66;5008363;28;20030;-72
2022/01/19 06:17:12;;;;;;;43.85;15.38;;;;;;;1.21;60.08;102533.84;5003655;28;20124;-71
2022/01/19 06:19:40;;;;;;;48.20;17.08;;;;;;;1.72;58.61;102528.28;5019062;28;20033;-72
2022/01/19 06:22:08;;;;;;;53.03;18.88;;;;;;;1.73;58.42;102512.00;4997527;28;20448;-72
2022/01/19 06:24:34;;;;;;;48.97;16.05;;;;;;;1.72;58.53;102505.06;5020452;28;20108;-72
2022/01/19 06:26:59;;;;;;;48.67;16.95;;;;;;;1.97;57.56;102491.00;4995619;28;20060;-72
2022/01/19 06:29:27;;;;;;;41.17;15.55;;;;;;;1.57;58.83;102496.97;5010945;28;20076;-72
2022/01/19 06:31:53;;;;;;;40.92;16.45;;;;;;;2.00;57.61;102479.88;5002384;28;20029;-72
2022/01/19 06:34:18;;;;;;;50.83;17.13;;;;;;;2.03;57.53;102479.97;4995806;28;20047;-72
2022/01/19 06:37:04;;;;;;;53.55;17.85;;;;;;;1.90;57.42;102473.66;5004892;28;20115;-73
2022/01/19 06:39:53;;;;;;;47.05;16.92;;;;;;;2.07;57.31;102466.31;5007063;28;20038;-72
2022/01/19 06:42:19;;;;;;;46.33;16.10;;;;;;;2.31;56.26;102461.66;5005472;28;20520;-73
2022/01/19 06:44:44;;;;;;;46.70;14.77;;;;;;;2.30;56.16;102470.22;4995381;28;20041;-72
2022/01/19 06:47:11;;;;;;;54.70;18.52;;;;;;;2.44;55.81;102461.88;5009777;28;20048;-73
2022/01/19 06:49:37;;;;;;;45.50;15.98;;;;;;;2.50;55.35;102462.00;5004609;28;20120;-73
2022/01/19 06:52:04;;;;;;;50.40;18.25;;;;;;;2.90;54.68;102452.41;5006674;28;20467;-72
2022/01/19 06:54:30;;;;;;;65.65;18.70;;;;;;;2.77;54.81;102454.75;5003929;28;20072;-73
2022/01/19 06:56:56;;;;;;;46.60;15.93;;;;;;;2.94;54.33;102454.19;5010447;28;20073;-74
2022/01/19 06:59:27;;;;;;;55.08;19.30;;;;;;;2.67;55.09;102452.00;4995524;28;20033;-72
2022/01/19 07:02:07;;;;;;;51.97;18.70;;;;;;;2.38;56.23;102444.56;5006950;28;20142;-73
2022/01/19 07:04:47;;;;;;;48.50;17.77;;;;;;;2.47;56.04;102439.59;5004419;28;20033;-74
2022/01/19 07:07:16;;;;;;;48.17;18.00;;;;;;;2.59;55.36;102436.34;5003223;28;20046;-72
2022/01/19 07:10:01;;;;;;;45.75;16.95;;;;;;;2.90;54.44;102424.00;5003177;28;22364;-72
2022/01/19 07:12:29;;;;;;;51.67;18.50;;;;;;;2.68;55.22;102428.78;5004868;28;20626;-72
2022/01/19 07:14:57;;;;;;;50.63;17.65;;;;;;;2.42;56.06;102425.75;5012531;28;20344;-72
2022/01/19 07:17:23;;;;;;;54.40;18.38;;;;;;;2.72;55.42;102433.16;5019590;28;20605;-72
2022/01/19 07:19:49;;;;;;;47.05;18.33;;;;;;;2.51;55.26;102415.56;5012129;28;20037;-72
2022/01/19 07:22:18;;;;;;;47.95;18.58;;;;;;;2.84;54.32;102418.72;4996533;28;20430;-71
2022/01/19 07:24:47;;;;;;;46.50;17.83;;;;;;;2.41;56.00;102410.22;5015629;28;20407;-72
2022/01/19 07:27:13;;;;;;;46.65;18.55;;;;;;;2.07;56.71;102407.00;5022671;28;20042;-72
2022/01/19 07:29:38;;;;;;;40.10;18.33;;;;;;;2.10;56.85;102412.19;5024290;28;20037;-72
2022/01/19 07:32:04;;;;;;;51.90;19.25;;;;;;;2.21;57.27;102402.09;4992120;28;20465;-72
2022/01/19 07:34:30;;;;;;;50.65;16.88;;;;;;;2.43;55.76;102399.06;5008868;28;20026;-72
2022/01/19 07:37:00;;;;;;;57.50;20.38;;;;;;;2.35;56.36;102392.88;5014053;28;20083;-72
2022/01/19 07:39:26;;;;;;;55.15;18.58;;;;;;;2.41;55.88;102389.56;5007108;28;20037;-72
2022/01/19 07:41:53;;;;;;;49.08;21.05;;;;;;;2.10;56.57;102381.25;5013525;28;20038;-71
2022/01/19 07:44:55;;;;;;;49.95;18.23;;;;;;;2.45;55.72;102374.16;4991063;28;20038;-71
2022/01/19 07:47:30;;;;;;;;;;;;;;;2.35;56.18;102370.56;5008138;28;20430;-71
2022/01/19 07:50:03;;;;;;;43.08;16.85;;;;;;;2.58;55.27;102357.19;5012899;28;20184;-72
2022/01/19 07:52:50;;;;;;;43.05;16.45;;;;;;;2.28;55.78;102355.78;5007708;28;20545;-71
2022/01/19 07:55:20;;;;;;;48.72;17.75;;;;;;;2.37;56.41;102346.47;4993522;28;20786;-71
2022/01/19 07:57:57;;;;;;;50.08;18.90;;;;;;;2.24;56.22;102350.53;5021539;28;20049;-71
2022/01/19 08:00:34;;;;;;;51.17;18.38;;;;;;;2.49;55.26;102326.06;5004276;28;20044;-71
2022/01/19 08:03:20;;;;;;;47.03;16.65;;;;;;;2.03;56.41;102314.91;5007619;28;20053;-72
2022/01/19 08:06:01;;;;;;;50.25;20.13;;;;;;;1.76;57.83;102316.13;5007967;28;20084;-72
2022/01/19 08:08:30;;;;;;;49.92;17.15;;;;;;;2.57;55.29;102314.13;4996636;28;20037;-73
2022/01/19 08:10:56;;;;;;;62.38;20.33;;;;;;;2.69;54.97;102310.88;5021303;28;20029;-72
2022/01/19 08:13:22;;;;;;;44.90;19.90;;;;;;;2.90;54.74;102297.44;5008704;28;20426;-72
2022/01/19 08:15:50;;;;;;;45.47;20.23;;;;;;;2.66;55.19;102293.63;4994524;28;20510;-71
2022/01/19 08:18:15;;;;;;;52.40;16.83;;;;;;;2.35;55.54;102282.81;4995897;28;20065;-71
2022/01/19 08:20:43;;;;;;;39.95;16.65;;;;;;;2.60;55.42;102275.47;5001058;28;20061;-72
2022/01/19 08:23:12;;;;;;;56.88;20.38;;;;;;;2.69;54.77;102278.22;5003633;28;20057;-71
2022/01/19 08:25:53;;;;;;;46.45;18.25;;;;;;;2.51;55.44;102272.72;4992008;28;20041;-70
2022/01/19 08:28:20;;;;;;;53.25;18.63;;;;;;;2.60;55.33;102267.75;5020184;28;20438;-71
2022/01/19 08:30:49;;;;;;;47.90;18.17;;;;;;;2.91;54.30;102261.31;5020315;28;20368;-71
2022/01/19 08:33:33;;;;;;;52.22;18.50;;;;;;;2.80;54.36;102249.06;5005619;28;20111;-71
2022/01/19 08:36:03;;;;;;;45.13;17.83;;;;;;;2.79;54.44;102247.34;5006945;28;20820;-71
2022/01/19 08:38:32;;;;;;;51.92;19.80;;;;;;;2.95;54.27;102239.81;4997476;28;20480;-71
2022/01/19 08:41:21;;;;;;;60.38;20.20;;;;;;;2.33;56.29;102257.81;4997765;28;20030;-71
2022/01/19 08:43:48;;;;;;;43.75;18.45;;;;;;;2.03;56.89;102250.44;4990562;28;20544;-71
2022/01/19 08:46:16;;;;;;;54.80;19.33;;;;;;;2.40;55.69;102243.31;5012672;28;20045;-72
2022/01/19 08:49:15;;;;;;;48.22;19.83;;;;;;;2.65;54.91;102235.09;4938495;28;20512;-71
2022/01/19 08:51:58;;;;;;;59.95;20.25;;;;;;;2.82;54.61;102226.72;4997029;28;20037;-74
2022/01/19 08:54:36;;;;;;;54.08;19.20;;;;;;;2.50;55.72;102230.56;4994467;28;20113;-72
2022/01/19 08:57:09;;;;;;;60.10;22.27;;;;;;;2.23;56.39;102230.16;5007572;28;20128;-71
2022/01/19 08:59:36;;;;;;;54.50;19.92;;;;;;;2.55;55.28;102233.22;4994233;28;20124;-72
2022/01/19 09:02:06;;;;;;;58.95;24.15;;;;;;;2.46;55.62;102225.34;5003094;28;20055;-71
2022/01/19 09:04:32;;;;;;;57.20;23.75;;;;;;;1.81;57.76;102226.84;5018675;28;20036;-71
2022/01/19 09:07:00;;;;;;;58.15;22.00;;;;;;;2.35;56.04;102220.91;5006134;28;20029;-71
2022/01/19 09:09:26;;;;;;;73.57;24.58;;;;;;;2.34;55.91;102221.72;5025770;28;20033;-71
2022/01/19 09:11:54;;;;;;;73.88;24.45;;;;;;;2.07;56.36;102223.88;5024724;28;20119;-71
2022/01/19 09:14:20;;;;;;;60.85;25.25;;;;;;;2.04;56.33;102214.38;5024216;28;20160;-72
2022/01/19 09:16:49;;;;;;;58.17;22.83;;;;;;;2.08;56.32;102213.56;5023534;28;20021;-72
2022/01/19 09:19:18;;;;;;;62.35;23.83;;;;;;;2.06;56.20;102206.63;5027159;28;20521;-73
2022/01/19 09:21:48;;;;;;;57.33;21.27;;;;;;;2.35;55.15;102199.38;5026649;28;20029;-72
2022/01/19 09:24:14;;;;;;;52.47;22.08;;;;;;;1.92;56.56;102199.53;5024716;28;20057;-72
2022/01/19 09:26:42;;;;;;;52.55;20.67;;;;;;;1.67;56.86;102192.22;5041011;28;20544;-72
2022/01/19 09:29:07;;;;;;;54.75;21.85;;;;;;;1.92;55.90;102196.09;5031284;28;20039;-72
2022/01/19 09:31:34;;;;;;;58.95;21.30;;;;;;;2.16;55.08;102187.91;5023377;28;20623;-72
2022/01/19 09:34:10;;;;;;;52.75;21.25;;;;;;;1.80;55.40;102189.03;5024120;28;20047;-72
2022/01/19 09:36:46;;;;;;;47.55;20.08;;;;;;;1.61;55.81;102186.94;5025743;28;20037;-72
2022/01/19 09:39:23;;;;;;;48.13;20.58;;;;;;;1.37;56.97;102187.31;5024188;28;20512;-72
2022/01/19 09:41:49;;;;;;;46.30;20.83;;;;;;;1.11;57.36;102191.13;5038874;28;20284;-72
2022/01/19 09:44:19;;;;;;;55.80;22.92;;;;;;;0.89;58.00;102182.06;5028909;28;20048;-72
2022/01/19 09:46:46;;;;;;;42.85;20.08;;;;;;;1.29;56.99;102179.44;5029576;28;20037;-72
2022/01/19 09:49:13;;;;;;;43.70;19.45;;;;;;;1.73;55.67;102161.41;5039505;28;20045;-72
2022/01/19 09:51:43;;;;;;;46.92;19.85;;;;;;;1.44;57.14;102168.56;5023563;28;20037;-72
2022/01/19 09:54:12;;;;;;;46.47;18.85;;;;;;;2.04;54.89;102159.31;5029965;28;20060;-72
2022/01/19 09:56:38;;;;;;;47.20;20.83;;;;;;;2.34;54.34;102151.19;5024570;28;20554;-71
2022/01/19 09:59:06;;;;;;;39.10;17.88;;;;;;;2.24;54.62;102139.88;5022711;28;20041;-72
2022/01/19 10:01:31;;;;;;;43.17;19.33;;;;;;;2.25;54.15;102120.97;5012660;28;20116;-72
2022/01/19 10:03:57;;;;;;;37.50;17.73;;;;;;;2.83;53.59;102114.88;5027763;28;20451;-73
2022/01/19 10:06:23;;;;;;;36.70;17.85;;;;;;;2.38;53.62;102115.97;5042690;28;20033;-71
2022/01/19 10:08:53;;;;;;;45.00;17.70;;;;;;;2.14;54.55;102101.88;5041286;28;20598;-72
2022/01/19 10:17:02;;;;;;;33.40;16.95;;;;;;;3.50;50.92;102074.25;4997833;28;20111;-70
2022/01/19 10:19:50;;;;;;;36.60;16.10;;;;;;;2.96;52.01;102075.41;5020256;28;20128;-75
2022/01/19 10:22:18;;;;;;;38.55;17.65;;;;;;;2.66;53.37;102076.78;5006840;28;20077;-74
2022/01/19 10:25:02;;;;;;;33.28;17.15;;;;;;;2.17;53.61;102076.13;5012293;28;20619;-70
2022/01/19 10:27:42;;;;;;;39.33;18.70;;;;;;;2.65;52.85;102085.38;5006638;28;20081;-72
2022/01/19 10:30:08;;;;;;;37.60;17.48;;;;;;;2.11;54.32;102076.06;5006593;28;20034;-72
2022/01/19 10:32:47;;;;;;;40.90;18.25;;;;;;;2.40;53.72;102078.16;5024979;28;20446;-74
2022/01/19 10:35:21;;;;;;;38.05;17.42;;;;;;;2.46;53.86;102057.59;5022871;28;20045;-72
2022/01/19 10:38:03;;;;;;;41.30;18.35;;;;;;;2.76;53.18;102045.06;5007519;28;20088;-71
2022/01/19 10:40:28;;;;;;;;;;;;;;;2.37;54.12;102039.41;5004824;28;20095;-71
2022/01/19 10:42:56;;;;;;;49.35;18.50;;;;;;;2.75;52.91;102024.38;5010548;28;19925;-70
2022/01/19 10:45:22;;;;;;;42.40;18.50;;;;;;;2.54;53.17;102014.69;5005655;28;20045;-72
2022/01/19 10:47:57;;;;;;;41.90;18.70;;;;;;;2.76;52.76;102008.91;5011309;28;20041;-71
2022/01/19 10:50:31;;;;;;;38.25;17.75;;;;;;;2.67;52.51;102003.66;5005875;28;20033;-71
2022/01/19 10:53:01;;;;;;;39.63;18.35;;;;;;;2.10;54.43;101992.63;5021700;28;20029;-72
2022/01/19 10:55:49;;;;;;;42.67;18.48;;;;;;;2.22;54.07;102001.38;5004982;28;20040;-73
2022/01/19 10:58:16;;;;;;;39.78;16.67;;;;;;;2.53;53.31;101988.03;5003638;28;20052;-72
2022/01/19 11:00:49;;;;;;;42.97;19.38;;;;;;;2.40;54.20;101987.84;5004615;28;20045;-73
2022/01/19 11:03:25;;;;;;;40.70;18.35;;;;;;;1.61;55.81;101985.94;5006719;28;20049;-71
2022/01/19 11:05:55;;;;;;;39.10;17.30;;;;;;;2.13;54.79;101991.81;5005868;28;20046;-74
2022/01/19 11:08:24;;;;;;;47.30;20.80;;;;;;;2.69;53.59;101978.72;5018969;28;20105;-74
2022/01/19 11:10:53;;;;;;;40.38;18.75;;;;;;;2.30;54.57;101967.09;5004551;28;20080;-72
2022/01/19 11:13:30;;;;;;;38.42;17.08;;;;;;;2.85;52.79;101953.06;5005460;28;20042;-71
2022/01/19 11:15:57;;;;;;;41.75;17.13;;;;;;;2.33;53.94;101955.94;5019046;28;20033;-72
2022/01/19 11:18:25;;;;;;;40.17;18.38;;;;;;;2.60;53.27;101936.44;5011654;28;20549;-72
2022/01/19 11:20:53;;;;;;;34.03;18.00;;;;;;;2.84;53.08;101948.75;5004891;28;20270;-74
2022/01/19 11:23:55;;;;;;;37.65;18.45;;;;;;;1.78;56.17;101935.50;5018471;28;20080;-74
2022/01/19 11:26:29;;;;;;;42.40;19.23;;;;;;;2.75;52.93;101936.59;5010647;28;20026;-72
2022/01/19 11:28:56;;;;;;;44.17;18.40;;;;;;;2.34;54.08;101930.16;5018070;28;20034;-73
2022/01/19 11:31:22;;;;;;;43.65;18.08;;;;;;;2.35;53.80;101926.75;5006357;28;20089;-72
2022/01/19 11:33:52;;;;;;;38.88;18.42;;;;;;;1.97;54.97;101917.69;5018276;28;20049;-72
2022/01/19 11:36:28;;;;;;;45.42;19.80;;;;;;;2.20;54.75;101907.63;5005086;28;20112;-73
2022/01/19 11:39:22;;;;;;;45.13;19.58;;;;;;;2.00;55.51;101902.22;5011265;28;20044;-73
2022/01/19 11:41:47;;;;;;;42.85;17.83;;;;;;;2.40;54.29;101895.84;5020154;28;20794;-73
2022/01/19 11:44:28;;;;;;;40.28;18.13;;;;;;;2.13;55.08;101889.53;5020651;28;20040;-73
2022/01/19 11:46:59;;;;;;;45.95;18.80;;;;;;;2.33;54.89;101892.31;5005580;28;20033;-74
2022/01/19 11:49:48;;;;;;;42.70;20.15;;;;;;;1.56;56.35;101890.53;5019595;28;20109;-73
2022/01/19 11:52:16;;;;;;;43.40;19.50;;;;;;;2.13;55.26;101883.47;5003485;28;20038;-73
2022/01/19 11:54:42;;;;;;;39.10;18.63;;;;;;;2.00;55.80;101879.03;5017747;28;20076;-73
2022/01/19 11:57:10;;;;;;;45.42;21.60;;;;;;;2.01;55.49;101861.00;4994236;28;20046;-73
2022/01/19 11:59:47;;;;;;;48.47;19.83;;;;;;;1.89;55.51;101853.13;4993572;28;20029;-73
2022/01/19 12:02:22;;;;;;;49.17;20.48;;;;;;;2.13;55.58;101840.53;4987828;28;20069;-73
2022/01/19 12:04:50;;;;;;;48.42;20.77;;;;;;;1.80;56.08;101848.75;5025813;28;20024;-73
2022/01/19 12:07:45;;;;;;;43.00;20.60;;;;;;;1.86;56.47;101833.34;5010114;28;20661;-73
2022/01/19 12:10:20;;;;;;;53.78;23.40;;;;;;;1.78;56.04;101829.81;5008461;28;20584;-75
2022/01/19 12:16:25;;;;;;;46.08;19.98;;;;;;;2.07;56.29;101811.22;5018173;28;20028;-73
2022/01/19 12:18:53;;;;;;;51.83;21.98;;;;;;;1.98;56.18;101809.41;5026408;28;20497;-73
2022/01/19 12:21:21;;;;;;;56.75;22.55;;;;;;;2.54;54.82;101798.75;5028675;28;20098;-73
2022/01/19 12:23:48;;;;;;;50.40;22.00;;;;;;;2.31;55.68;101790.84;5013039;28;20037;-73
2022/01/19 12:26:16;;;;;;;53.38;20.85;;;;;;;3.02;54.17;101785.31;5010574;28;21584;-73
2022/01/19 12:28:52;;;;;;;46.08;20.60;;;;;;;3.23;53.43;101779.44;4999131;28;20133;-73
2022/01/19 12:31:24;;;;;;;46.03;21.70;;;;;;;3.02;53.94;101757.78;5017327;28;20736;-73
2022/01/19 12:34:13;;;;;;;46.53;20.15;;;;;;;2.70;54.68;101763.59;5011750;28;20255;-74
2022/01/19 12:36:45;;;;;;;49.45;22.65;;;;;;;2.00;55.95;101753.56;5016497;28;20124;-74
2022/01/19 12:39:25;;;;;;;46.85;21.15;;;;;;;2.26;55.73;101751.22;5016823;28;20041;-73
2022/01/19 12:41:59;;;;;;;50.25;23.63;;;;;;;1.88;56.87;101743.97;5015119;28;20452;-74
2022/01/19 12:44:45;;;;;;;53.25;23.67;;;;;;;2.00;56.83;101726.88;5014239;28;20520;-73
2022/01/19 12:47:31;;;;;;;52.67;21.00;;;;;;;2.23;56.38;101722.81;5006581;28;20099;-73
2022/01/19 12:50:02;;;;;;;43.22;21.15;;;;;;;2.05;56.58;101714.94;4997868;28;20028;-72
2022/01/19 12:52:37;;;;;;;48.50;20.98;;;;;;;2.15;56.13;101716.72;5036735;28;20294;-72
2022/01/19 12:55:19;;;;;;;53.22;24.75;;;;;;;1.94;56.79;101722.56;5041021;28;20430;-72
2022/01/19 12:57:45;;;;;;;44.13;21.35;;;;;;;1.97;57.35;101713.97;5023122;28;20042;-72